CST,Max TemperatureF,Mean TemperatureF,Min TemperatureF,Max Dew PointF,MeanDew PointF,Min DewpointF,Max Humidity, Mean Humidity, Min Humidity, Max Sea Level PressureIn, Mean Sea Level PressureIn, Min Sea Level PressureIn, Max VisibilityMiles, Mean VisibilityMiles, Min VisibilityMiles, Max Wind SpeedMPH, Mean Wind SpeedMPH, Max Gust SpeedMPH,PrecipitationIn, CloudCover, Events, WindDirDegrees
2013-12-1,37,30,23,28,26,23,100,87,60,30.16,30.04,29.83,10,9,7,12,4,13,0.00,6,,109
2013-12-2,48,38,26,37,31,23,100,95,49,29.82,29.59,29.49,10,8,6,15,7,17,0.00,4,,153
2013-12-3,35,30,24,36,31,25,100,98,87,29.71,29.62,29.54,10,4,0,16,9,18,0.01,7,Fog-Rain-Snow,18
2013-12-4,28,18,8,28,17,1,100,88,73,29.90,29.68,29.58,10,7,1,30,13,37,0.00,8,Rain-Snow,309
2013-12-5,8,2,-5,1,-5,-13,79,69,61,30.37,30.18,29.92,10,10,9,25,17,33,0.00,4,Snow,289
2013-12-6,0,-6,-13,-9,-15,-20,71,67,60,30.64,30.53,30.37,10,10,10,14,9,,0.00,0,,291
2013-12-7,5,-6,-16,0,-13,-24,78,70,60,30.68,30.59,30.41,10,9,2,10,5,,0.00,2,Snow,303
2013-12-8,12,6,-2,9,4,-6,85,80,73,30.39,30.13,30.01,10,6,1,14,10,18,0.00,7,Snow,147
2013-12-9,12,2,-9,5,-9,-17,85,70,56,30.18,30.07,29.84,10,10,10,23,12,31,0.00,2,,247
2013-12-10,19,11,3,16,6,-2,93,77,62,30.25,30.05,29.82,10,7,1,25,13,36,0.00,5,Snow,273
2013-12-11,14,-3,-20,10,-10,-27,86,69,60,30.57,30.44,30.27,10,10,5,17,11,24,0.00,2,Snow,260
2013-12-12,26,16,6,18,10,1,92,78,64,30.29,30.18,30.02,10,10,10,17,10,24,0.06,3,,199
2013-12-13,21,14,8,16,11,5,93,84,79,30.16,30.03,29.97,10,8,2,22,12,28,0.00,5,Rain-Snow,59
2013-12-14,14,8,3,7,4,0,85,80,73,30.19,30.15,30.10,10,9,3,15,10,20,0.00,7,Rain-Snow,322
2013-12-15,10,8,6,5,2,-2,85,77,67,30.09,30.03,29.98,10,10,8,14,6,,0.00,8,Snow,82
2013-12-16,28,16,5,25,12,1,93,83,74,30.05,29.99,29.91,10,10,9,15,9,21,0.00,4,,220
2013-12-17,32,20,8,27,18,5,93,77,60,30.17,30.11,30.03,10,10,10,23,12,31,0.00,2,Snow,274
2013-12-18,39,27,15,30,23,10,93,76,59,30.02,29.76,29.68,10,10,10,18,9,24,0.00,0,,202
2013-12-19,28,19,10,25,11,7,86,82,79,29.95,29.88,29.79,10,9,6,24,16,26,0.00,6,Rain-Snow,29
2013-12-20,14,12,10,10,8,5,92,83,79,29.96,29.90,29.83,10,9,2,16,11,21,0.00,8,Rain-Snow,346
2013-12-21,19,12,6,18,11,3,93,85,79,29.90,29.85,29.78,10,10,6,21,5,24,0.00,6,,43
2013-12-22,12,4,-4,7,0,-11,85,76,71,30.32,30.10,29.90,10,10,7,18,13,22,0.00,5,Rain-Snow,322
2013-12-23,0,-8,-16,-11,-19,-26,77,61,46,30.50,30.45,30.33,10,10,10,18,11,22,0.00,0,,298
2013-12-24,19,0,-18,16,-1,-26,93,72,54,30.45,30.18,30.04,10,8,1,25,10,36,0.00,6,Snow,174
2013-12-25,32,24,15,28,19,12,93,85,69,30.20,30.14,30.05,10,10,5,23,10,32,0.00,6,Snow,257
2013-12-26,35,26,17,27,21,16,93,80,65,30.18,30.09,30.03,10,10,10,12,8,,0.00,4,,245
2013-12-27,42,28,14,32,25,12,100,84,61,30.17,30.07,29.99,10,10,2,20,6,25,0.00,0,,213
2013-12-28,50,28,6,34,23,1,93,75,46,30.12,29.85,29.66,10,9,2,39,11,47,0.00,2,Rain-Snow,215
2013-12-29,6,0,-7,0,-14,-20,78,60,46,30.37,30.27,30.13,10,9,2,32,19,41,0.00,2,Snow,333
2013-12-30,14,6,-2,10,-1,-11,86,73,56,30.21,30.11,29.99,10,8,0,18,8,24,0.00,7,Snow,185
2013-12-31,6,3,0,1,-3,-8,85,76,72,30.24,30.19,30.15,10,9,2,18,8,23,0.00,8,Snow,58